sensor_id;sensor_type;location;lat;lon;timestamp;P1;durP1;ratioP1;P2;durP2;ratioP2
68792;SDS011;55778;54.346;10.210;2022-12-31T00:01:02;7.57;;;4.28;;
68792;SDS011;55778;54.346;10.210;2022-12-31T00:03:29;11.27;;;4.90;;
68792;SDS011;55778;54.346;10.210;2022-12-31T00:05:55;11.07;;;5.15;;
68792;SDS011;55778;54.346;10.210;2022-12-31T00:08:20;8.27;;;4.35;;
68792;SDS011;55778;54.346;10.210;2022-12-31T00:10:46;9.38;;;4.97;;
68792;SDS011;55778;54.346;10.210;2022-12-31T00:13:12;7.13;;;4.18;;
68792;SDS011;55778;54.346;10.210;2022-12-31T00:15:39;8.98;;;4.60;;
68792;SDS011;55778;54.346;10.210;2022-12-31T00:18:05;6.60;;;3.95;;
68792;SDS011;55778;54.346;10.210;2022-12-31T00:20:30;9.77;;;4.18;;
68792;SDS011;55778;54.346;10.210;2022-12-31T00:22:56;7.72;;;3.95;;
68792;SDS011;55778;54.346;10.210;2022-12-31T00:25:21;10.57;;;4.47;;
68792;SDS011;55778;54.346;10.210;2022-12-31T00:27:48;6.57;;;3.47;;
68792;SDS011;55778;54.346;10.210;2022-12-31T00:30:14;8.48;;;3.78;;
68792;SDS011;55778;54.346;10.210;2022-12-31T00:32:40;8.20;;;4.35;;
68792;SDS011;55778;54.346;10.210;2022-12-31T00:35:05;7.15;;;3.67;;
68792;SDS011;55778;54.346;10.210;2022-12-31T00:37:31;5.53;;;2.85;;
68792;SDS011;55778;54.346;10.210;2022-12-31T00:39:56;7.72;;;3.50;;
68792;SDS011;55778;54.346;10.210;2022-12-31T00:42:22;11.63;;;3.95;;
68792;SDS011;55778;54.346;10.210;2022-12-31T00:44:47;9.43;;;2.90;;
68792;SDS011;55778;54.346;10.210;2022-12-31T00:47:13;8.68;;;3.42;;
68792;SDS011;55778;54.346;10.210;2022-12-31T00:49:39;7.07;;;2.80;;
68792;SDS011;55778;54.346;10.210;2022-12-31T00:52:04;5.57;;;2.78;;
68792;SDS011;55778;54.346;10.210;2022-12-31T00:54:30;7.03;;;2.70;;
68792;SDS011;55778;54.346;10.210;2022-12-31T00:56:55;8.35;;;3.50;;
68792;SDS011;55778;54.346;10.210;2022-12-31T00:59:21;8.15;;;3.03;;
68792;SDS011;55778;54.346;10.210;2022-12-31T01:01:47;8.23;;;2.70;;
68792;SDS011;55778;54.346;10.210;2022-12-31T01:04:15;6.32;;;3.00;;
68792;SDS011;55778;54.346;10.210;2022-12-31T01:06:43;7.45;;;2.95;;
68792;SDS011;55778;54.346;10.210;2022-12-31T01:09:09;6.78;;;2.50;;
68792;SDS011;55778;54.346;10.210;2022-12-31T01:11:35;8.73;;;3.10;;
68792;SDS011;55778;54.346;10.210;2022-12-31T01:14:02;5.90;;;2.90;;
68792;SDS011;55778;54.346;10.210;2022-12-31T01:16:31;10.40;;;3.00;;
68792;SDS011;55778;54.346;10.210;2022-12-31T01:18:59;7.93;;;3.13;;
68792;SDS011;55778;54.346;10.210;2022-12-31T01:21:26;6.97;;;2.83;;
68792;SDS011;55778;54.346;10.210;2022-12-31T01:23:52;8.38;;;3.63;;
68792;SDS011;55778;54.346;10.210;2022-12-31T01:26:18;9.60;;;3.53;;
68792;SDS011;55778;54.346;10.210;2022-12-31T01:28:44;4.45;;;2.70;;
68792;SDS011;55778;54.346;10.210;2022-12-31T01:31:14;7.45;;;2.45;;
68792;SDS011;55778;54.346;10.210;2022-12-31T01:33:41;8.27;;;2.75;;
68792;SDS011;55778;54.346;10.210;2022-12-31T01:36:08;6.20;;;2.60;;
68792;SDS011;55778;54.346;10.210;2022-12-31T01:41:02;9.30;;;3.30;;
68792;SDS011;55778;54.346;10.210;2022-12-31T01:43:45;5.80;;;2.58;;
68792;SDS011;55778;54.346;10.210;2022-12-31T01:49:21;4.60;;;2.20;;
68792;SDS011;55778;54.346;10.210;2022-12-31T01:54:59;5.95;;;3.10;;
68792;SDS011;55778;54.346;10.210;2022-12-31T01:57:30;6.15;;;2.08;;
68792;SDS011;55778;54.346;10.210;2022-12-31T01:59:56;6.50;;;2.22;;
68792;SDS011;55778;54.346;10.210;2022-12-31T02:02:24;5.05;;;2.40;;
68792;SDS011;55778;54.346;10.210;2022-12-31T02:04:50;7.90;;;2.75;;
68792;SDS011;55778;54.346;10.210;2022-12-31T02:07:18;5.00;;;2.20;;
68792;SDS011;55778;54.346;10.210;2022-12-31T02:09:44;5.07;;;1.98;;
68792;SDS011;55778;54.346;10.210;2022-12-31T02:12:09;4.90;;;2.60;;
68792;SDS011;55778;54.346;10.210;2022-12-31T02:14:39;5.65;;;2.28;;
68792;SDS011;55778;54.346;10.210;2022-12-31T02:28:14;16.95;;;2.90;;
68792;SDS011;55778;54.346;10.210;2022-12-31T02:34:12;8.60;;;1.80;;
68792;SDS011;55778;54.346;10.210;2022-12-31T02:36:43;8.07;;;2.70;;
68792;SDS011;55778;54.346;10.210;2022-12-31T02:39:11;4.85;;;1.73;;
68792;SDS011;55778;54.346;10.210;2022-12-31T02:41:38;11.90;;;3.58;;
68792;SDS011;55778;54.346;10.210;2022-12-31T02:44:29;8.57;;;2.20;;
68792;SDS011;55778;54.346;10.210;2022-12-31T02:54:57;5.15;;;2.10;;
68792;SDS011;55778;54.346;10.210;2022-12-31T02:57:39;7.43;;;1.95;;
68792;SDS011;55778;54.346;10.210;2022-12-31T03:00:12;7.80;;;2.08;;
68792;SDS011;55778;54.346;10.210;2022-12-31T03:02:58;7.60;;;2.10;;
68792;SDS011;55778;54.346;10.210;2022-12-31T03:05:29;7.18;;;1.80;;
68792;SDS011;55778;54.346;10.210;2022-12-31T03:07:58;5.10;;;1.70;;
68792;SDS011;55778;54.346;10.210;2022-12-31T03:10:23;8.95;;;1.90;;
68792;SDS011;55778;54.346;10.210;2022-12-31T03:12:49;7.65;;;2.20;;
68792;SDS011;55778;54.346;10.210;2022-12-31T03:17:51;7.38;;;1.85;;
68792;SDS011;55778;54.346;10.210;2022-12-31T03:20:36;4.15;;;1.20;;
68792;SDS011;55778;54.346;10.210;2022-12-31T03:26:31;8.43;;;2.05;;
68792;SDS011;55778;54.346;10.210;2022-12-31T03:28:56;8.80;;;1.40;;
68792;SDS011;55778;54.346;10.210;2022-12-31T03:31:22;7.88;;;1.92;;
68792;SDS011;55778;54.346;10.210;2022-12-31T03:33:47;8.93;;;1.98;;
68792;SDS011;55778;54.346;10.210;2022-12-31T03:36:13;6.30;;;1.83;;
68792;SDS011;55778;54.346;10.210;2022-12-31T03:38:39;4.68;;;1.30;;
68792;SDS011;55778;54.346;10.210;2022-12-31T03:41:05;8.18;;;1.80;;
68792;SDS011;55778;54.346;10.210;2022-12-31T03:43:33;8.20;;;1.88;;
68792;SDS011;55778;54.346;10.210;2022-12-31T03:45:58;6.95;;;1.85;;
68792;SDS011;55778;54.346;10.210;2022-12-31T03:48:25;6.15;;;1.67;;
68792;SDS011;55778;54.346;10.210;2022-12-31T03:50:51;6.28;;;1.92;;
68792;SDS011;55778;54.346;10.210;2022-12-31T03:53:16;4.60;;;1.65;;
68792;SDS011;55778;54.346;10.210;2022-12-31T03:55:42;6.97;;;1.70;;
68792;SDS011;55778;54.346;10.210;2022-12-31T03:58:07;4.70;;;1.90;;
68792;SDS011;55778;54.346;10.210;2022-12-31T04:00:33;6.00;;;1.80;;
68792;SDS011;55778;54.346;10.210;2022-12-31T04:02:58;7.20;;;2.10;;
68792;SDS011;55778;54.346;10.210;2022-12-31T04:05:24;7.95;;;1.92;;
68792;SDS011;55778;54.346;10.210;2022-12-31T04:07:49;6.10;;;1.75;;
68792;SDS011;55778;54.346;10.210;2022-12-31T04:10:16;5.70;;;2.22;;
68792;SDS011;55778;54.346;10.210;2022-12-31T04:12:42;8.38;;;3.10;;
68792;SDS011;55778;54.346;10.210;2022-12-31T04:15:08;5.70;;;2.05;;
68792;SDS011;55778;54.346;10.210;2022-12-31T04:17:35;5.90;;;2.50;;
68792;SDS011;55778;54.346;10.210;2022-12-31T04:20:01;4.60;;;2.28;;
68792;SDS011;55778;54.346;10.210;2022-12-31T04:22:27;7.38;;;2.40;;
68792;SDS011;55778;54.346;10.210;2022-12-31T04:24:52;14.68;;;3.08;;
68792;SDS011;55778;54.346;10.210;2022-12-31T04:27:18;6.13;;;2.08;;
68792;SDS011;55778;54.346;10.210;2022-12-31T04:29:43;5.90;;;2.72;;
68792;SDS011;55778;54.346;10.210;2022-12-31T04:32:08;7.00;;;2.70;;
68792;SDS011;55778;54.346;10.210;2022-12-31T04:34:34;5.57;;;2.00;;
68792;SDS011;55778;54.346;10.210;2022-12-31T04:37:00;8.18;;;2.45;;
68792;SDS011;55778;54.346;10.210;2022-12-31T04:39:26;5.63;;;1.95;;
68792;SDS011;55778;54.346;10.210;2022-12-31T04:41:51;7.28;;;2.10;;
68792;SDS011;55778;54.346;10.210;2022-12-31T04:44:18;10.52;;;1.83;;
68792;SDS011;55778;54.346;10.210;2022-12-31T04:46:44;5.05;;;2.28;;
68792;SDS011;55778;54.346;10.210;2022-12-31T04:49:09;7.57;;;2.10;;
68792;SDS011;55778;54.346;10.210;2022-12-31T04:51:35;5.78;;;2.20;;
68792;SDS011;55778;54.346;10.210;2022-12-31T04:54:01;4.63;;;2.00;;
68792;SDS011;55778;54.346;10.210;2022-12-31T04:56:27;6.80;;;1.75;;
68792;SDS011;55778;54.346;10.210;2022-12-31T04:58:53;5.00;;;1.75;;
68792;SDS011;55778;54.346;10.210;2022-12-31T05:01:19;5.18;;;2.00;;
68792;SDS011;55778;54.346;10.210;2022-12-31T05:03:44;3.88;;;2.25;;
68792;SDS011;55778;54.346;10.210;2022-12-31T05:06:11;5.75;;;2.40;;
68792;SDS011;55778;54.346;10.210;2022-12-31T05:08:38;9.35;;;2.92;;
68792;SDS011;55778;54.346;10.210;2022-12-31T05:11:04;9.20;;;3.85;;
68792;SDS011;55778;54.346;10.210;2022-12-31T05:13:29;9.00;;;4.93;;
68792;SDS011;55778;54.346;10.210;2022-12-31T05:15:55;8.50;;;4.10;;
68792;SDS011;55778;54.346;10.210;2022-12-31T05:18:20;7.63;;;4.15;;
68792;SDS011;55778;54.346;10.210;2022-12-31T05:20:46;10.00;;;4.38;;
68792;SDS011;55778;54.346;10.210;2022-12-31T05:23:12;10.30;;;4.47;;
68792;SDS011;55778;54.346;10.210;2022-12-31T05:25:38;6.50;;;3.42;;
68792;SDS011;55778;54.346;10.210;2022-12-31T05:28:04;10.80;;;4.90;;
68792;SDS011;55778;54.346;10.210;2022-12-31T05:30:30;11.23;;;5.50;;
68792;SDS011;55778;54.346;10.210;2022-12-31T05:32:55;13.02;;;5.45;;
68792;SDS011;55778;54.346;10.210;2022-12-31T05:35:21;12.75;;;5.10;;
68792;SDS011;55778;54.346;10.210;2022-12-31T05:37:46;10.25;;;5.50;;
68792;SDS011;55778;54.346;10.210;2022-12-31T05:40:11;12.88;;;6.43;;
68792;SDS011;55778;54.346;10.210;2022-12-31T05:42:37;12.70;;;5.60;;
68792;SDS011;55778;54.346;10.210;2022-12-31T05:45:03;12.40;;;6.53;;
68792;SDS011;55778;54.346;10.210;2022-12-31T05:47:29;26.20;;;11.95;;
68792;SDS011;55778;54.346;10.210;2022-12-31T05:49:54;10.40;;;4.75;;
68792;SDS011;55778;54.346;10.210;2022-12-31T05:52:19;12.13;;;5.78;;
68792;SDS011;55778;54.346;10.210;2022-12-31T05:54:45;10.38;;;5.32;;
68792;SDS011;55778;54.346;10.210;2022-12-31T05:57:10;14.13;;;6.35;;
68792;SDS011;55778;54.346;10.210;2022-12-31T05:59:36;11.88;;;5.90;;
68792;SDS011;55778;54.346;10.210;2022-12-31T06:02:02;11.70;;;6.07;;
68792;SDS011;55778;54.346;10.210;2022-12-31T06:04:28;11.63;;;5.75;;
68792;SDS011;55778;54.346;10.210;2022-12-31T06:06:53;11.95;;;5.25;;
68792;SDS011;55778;54.346;10.210;2022-12-31T06:09:19;8.15;;;4.32;;
68792;SDS011;55778;54.346;10.210;2022-12-31T06:11:45;10.93;;;5.05;;
68792;SDS011;55778;54.346;10.210;2022-12-31T06:14:11;10.80;;;4.75;;
68792;SDS011;55778;54.346;10.210;2022-12-31T06:16:40;9.98;;;5.40;;
68792;SDS011;55778;54.346;10.210;2022-12-31T06:19:06;9.65;;;4.38;;
68792;SDS011;55778;54.346;10.210;2022-12-31T06:21:32;8.70;;;4.85;;
68792;SDS011;55778;54.346;10.210;2022-12-31T06:23:58;12.48;;;5.57;;
68792;SDS011;55778;54.346;10.210;2022-12-31T06:26:24;8.82;;;4.53;;
68792;SDS011;55778;54.346;10.210;2022-12-31T06:28:50;8.75;;;4.57;;
68792;SDS011;55778;54.346;10.210;2022-12-31T06:31:15;8.75;;;4.68;;
68792;SDS011;55778;54.346;10.210;2022-12-31T06:33:41;7.82;;;4.13;;
68792;SDS011;55778;54.346;10.210;2022-12-31T06:36:07;10.40;;;4.20;;
68792;SDS011;55778;54.346;10.210;2022-12-31T06:41:03;7.20;;;3.75;;
68792;SDS011;55778;54.346;10.210;2022-12-31T06:43:33;7.97;;;3.88;;
68792;SDS011;55778;54.346;10.210;2022-12-31T06:46:02;8.02;;;3.90;;
68792;SDS011;55778;54.346;10.210;2022-12-31T06:48:29;8.93;;;4.30;;
68792;SDS011;55778;54.346;10.210;2022-12-31T06:50:55;9.85;;;3.95;;
68792;SDS011;55778;54.346;10.210;2022-12-31T06:53:21;6.18;;;3.17;;
68792;SDS011;55778;54.346;10.210;2022-12-31T06:55:47;5.85;;;3.25;;
68792;SDS011;55778;54.346;10.210;2022-12-31T06:58:14;6.93;;;3.03;;
68792;SDS011;55778;54.346;10.210;2022-12-31T07:00:41;6.82;;;3.40;;
68792;SDS011;55778;54.346;10.210;2022-12-31T07:03:21;8.00;;;3.70;;
68792;SDS011;55778;54.346;10.210;2022-12-31T07:06:12;7.18;;;3.60;;
68792;SDS011;55778;54.346;10.210;2022-12-31T07:11:49;7.25;;;4.03;;
68792;SDS011;55778;54.346;10.210;2022-12-31T07:17:33;11.55;;;4.70;;
68792;SDS011;55778;54.346;10.210;2022-12-31T07:20:13;10.25;;;4.82;;
68792;SDS011;55778;54.346;10.210;2022-12-31T07:22:40;8.02;;;4.72;;
68792;SDS011;55778;54.346;10.210;2022-12-31T07:25:06;8.65;;;4.85;;
68792;SDS011;55778;54.346;10.210;2022-12-31T07:33:20;9.18;;;5.18;;
68792;SDS011;55778;54.346;10.210;2022-12-31T07:36:18;9.00;;;4.70;;
68792;SDS011;55778;54.346;10.210;2022-12-31T07:47:20;8.63;;;4.38;;
68792;SDS011;55778;54.346;10.210;2022-12-31T07:49:47;8.48;;;4.18;;
68792;SDS011;55778;54.346;10.210;2022-12-31T07:52:13;7.22;;;3.97;;
68792;SDS011;55778;54.346;10.210;2022-12-31T07:54:39;6.88;;;3.13;;
68792;SDS011;55778;54.346;10.210;2022-12-31T07:57:04;6.78;;;3.85;;
68792;SDS011;55778;54.346;10.210;2022-12-31T07:59:40;4.13;;;2.47;;
68792;SDS011;55778;54.346;10.210;2022-12-31T08:08:05;6.57;;;4.00;;
68792;SDS011;55778;54.346;10.210;2022-12-31T08:13:56;5.75;;;3.33;;
68792;SDS011;55778;54.346;10.210;2022-12-31T08:16:25;6.68;;;3.63;;
68792;SDS011;55778;54.346;10.210;2022-12-31T08:18:50;8.07;;;4.07;;
68792;SDS011;55778;54.346;10.210;2022-12-31T08:21:23;4.57;;;3.10;;
68792;SDS011;55778;54.346;10.210;2022-12-31T08:32:20;5.30;;;3.30;;
68792;SDS011;55778;54.346;10.210;2022-12-31T08:37:41;5.72;;;3.70;;
68792;SDS011;55778;54.346;10.210;2022-12-31T08:40:17;4.10;;;2.80;;
68792;SDS011;55778;54.346;10.210;2022-12-31T08:43:00;4.18;;;2.97;;
68792;SDS011;55778;54.346;10.210;2022-12-31T08:45:38;6.15;;;3.03;;
68792;SDS011;55778;54.346;10.210;2022-12-31T08:48:29;4.80;;;2.60;;
68792;SDS011;55778;54.346;10.210;2022-12-31T08:51:02;3.92;;;2.70;;
68792;SDS011;55778;54.346;10.210;2022-12-31T08:53:28;3.85;;;2.35;;
68792;SDS011;55778;54.346;10.210;2022-12-31T08:55:59;6.18;;;2.95;;
68792;SDS011;55778;54.346;10.210;2022-12-31T08:58:43;4.00;;;2.58;;
68792;SDS011;55778;54.346;10.210;2022-12-31T09:07:27;3.95;;;2.92;;
68792;SDS011;55778;54.346;10.210;2022-12-31T09:10:17;4.55;;;2.60;;
68792;SDS011;55778;54.346;10.210;2022-12-31T09:13:04;6.32;;;2.97;;
68792;SDS011;55778;54.346;10.210;2022-12-31T09:15:40;3.05;;;1.98;;
68792;SDS011;55778;54.346;10.210;2022-12-31T09:18:10;5.70;;;3.00;;
68792;SDS011;55778;54.346;10.210;2022-12-31T09:20:37;4.15;;;2.60;;
68792;SDS011;55778;54.346;10.210;2022-12-31T09:23:03;3.03;;;2.20;;
68792;SDS011;55778;54.346;10.210;2022-12-31T09:25:29;2.85;;;1.83;;
68792;SDS011;55778;54.346;10.210;2022-12-31T09:27:59;2.78;;;2.10;;
68792;SDS011;55778;54.346;10.210;2022-12-31T09:30:40;3.00;;;1.90;;
68792;SDS011;55778;54.346;10.210;2022-12-31T09:38:27;4.65;;;1.95;;
68792;SDS011;55778;54.346;10.210;2022-12-31T09:41:10;3.25;;;1.88;;
68792;SDS011;55778;54.346;10.210;2022-12-31T09:43:49;2.92;;;2.05;;
68792;SDS011;55778;54.346;10.210;2022-12-31T09:52:29;3.90;;;2.67;;
68792;SDS011;55778;54.346;10.210;2022-12-31T09:55:28;3.95;;;2.38;;
68792;SDS011;55778;54.346;10.210;2022-12-31T09:58:10;4.35;;;2.00;;
68792;SDS011;55778;54.346;10.210;2022-12-31T10:00:57;3.05;;;2.17;;
68792;SDS011;55778;54.346;10.210;2022-12-31T10:22:44;3.47;;;1.38;;
68792;SDS011;55778;54.346;10.210;2022-12-31T10:28:54;1.90;;;1.40;;
68792;SDS011;55778;54.346;10.210;2022-12-31T10:37:02;4.68;;;2.78;;
68792;SDS011;55778;54.346;10.210;2022-12-31T10:39:36;5.00;;;2.65;;
68792;SDS011;55778;54.346;10.210;2022-12-31T10:50:18;2.95;;;1.90;;
68792;SDS011;55778;54.346;10.210;2022-12-31T10:58:58;3.20;;;2.08;;
68792;SDS011;55778;54.346;10.210;2022-12-31T11:12:49;2.38;;;1.40;;
68792;SDS011;55778;54.346;10.210;2022-12-31T11:20:48;4.13;;;1.20;;
68792;SDS011;55778;54.346;10.210;2022-12-31T11:35:17;2.03;;;1.00;;
68792;SDS011;55778;54.346;10.210;2022-12-31T11:37:26;4.28;;;1.13;;
68792;SDS011;55778;54.346;10.210;2022-12-31T11:45:11;4.20;;;2.33;;
68792;SDS011;55778;54.346;10.210;2022-12-31T11:47:56;3.53;;;1.70;;
68792;SDS011;55778;54.346;10.210;2022-12-31T11:50:35;5.95;;;2.10;;
68792;SDS011;55778;54.346;10.210;2022-12-31T11:53:09;4.57;;;1.85;;
68792;SDS011;55778;54.346;10.210;2022-12-31T11:55:47;3.08;;;1.30;;
68792;SDS011;55778;54.346;10.210;2022-12-31T11:58:17;1.52;;;0.93;;
68792;SDS011;55778;54.346;10.210;2022-12-31T12:00:56;2.17;;;1.05;;
68792;SDS011;55778;54.346;10.210;2022-12-31T12:03:29;3.15;;;2.13;;
68792;SDS011;55778;54.346;10.210;2022-12-31T12:05:56;4.80;;;2.13;;
68792;SDS011;55778;54.346;10.210;2022-12-31T12:08:22;6.28;;;2.90;;
68792;SDS011;55778;54.346;10.210;2022-12-31T12:10:50;3.83;;;2.20;;
68792;SDS011;55778;54.346;10.210;2022-12-31T12:13:22;4.20;;;1.77;;
68792;SDS011;55778;54.346;10.210;2022-12-31T12:15:54;3.13;;;2.15;;
68792;SDS011;55778;54.346;10.210;2022-12-31T12:21:04;4.75;;;2.20;;
68792;SDS011;55778;54.346;10.210;2022-12-31T12:23:33;5.60;;;2.20;;
68792;SDS011;55778;54.346;10.210;2022-12-31T12:25:59;4.47;;;2.17;;
68792;SDS011;55778;54.346;10.210;2022-12-31T12:28:29;4.38;;;2.03;;
68792;SDS011;55778;54.346;10.210;2022-12-31T12:31:04;2.95;;;1.92;;
68792;SDS011;55778;54.346;10.210;2022-12-31T12:33:39;3.28;;;1.90;;
68792;SDS011;55778;54.346;10.210;2022-12-31T12:36:07;2.45;;;1.73;;
68792;SDS011;55778;54.346;10.210;2022-12-31T12:38:34;3.10;;;1.60;;
68792;SDS011;55778;54.346;10.210;2022-12-31T12:41:01;2.38;;;1.30;;
68792;SDS011;55778;54.346;10.210;2022-12-31T12:43:29;3.03;;;1.98;;
68792;SDS011;55778;54.346;10.210;2022-12-31T12:46:00;2.33;;;1.75;;
68792;SDS011;55778;54.346;10.210;2022-12-31T12:48:36;3.42;;;1.80;;
68792;SDS011;55778;54.346;10.210;2022-12-31T13:12:40;2.47;;;1.50;;
68792;SDS011;55778;54.346;10.210;2022-12-31T13:15:11;2.60;;;1.50;;
68792;SDS011;55778;54.346;10.210;2022-12-31T13:20:22;1.80;;;1.27;;
68792;SDS011;55778;54.346;10.210;2022-12-31T13:26:10;4.00;;;1.40;;
68792;SDS011;55778;54.346;10.210;2022-12-31T13:28:43;5.70;;;1.40;;
68792;SDS011;55778;54.346;10.210;2022-12-31T13:31:13;5.30;;;1.15;;
68792;SDS011;55778;54.346;10.210;2022-12-31T13:33:43;3.42;;;1.30;;
68792;SDS011;55778;54.346;10.210;2022-12-31T13:36:12;3.42;;;1.40;;
68792;SDS011;55778;54.346;10.210;2022-12-31T13:38:48;4.18;;;1.48;;
68792;SDS011;55778;54.346;10.210;2022-12-31T13:44:15;3.35;;;1.63;;
68792;SDS011;55778;54.346;10.210;2022-12-31T13:49:31;4.32;;;1.42;;
68792;SDS011;55778;54.346;10.210;2022-12-31T13:54:52;4.00;;;1.20;;
68792;SDS011;55778;54.346;10.210;2022-12-31T13:57:42;6.05;;;1.55;;
68792;SDS011;55778;54.346;10.210;2022-12-31T14:00:20;3.13;;;1.42;;
68792;SDS011;55778;54.346;10.210;2022-12-31T14:07:53;4.68;;;2.53;;
68792;SDS011;55778;54.346;10.210;2022-12-31T14:10:41;3.05;;;1.95;;
68792;SDS011;55778;54.346;10.210;2022-12-31T14:21:13;8.13;;;2.85;;
68792;SDS011;55778;54.346;10.210;2022-12-31T14:26:35;3.33;;;1.20;;
68792;SDS011;55778;54.346;10.210;2022-12-31T14:32:19;2.05;;;1.05;;
68792;SDS011;55778;54.346;10.210;2022-12-31T14:37:17;5.65;;;1.30;;
68792;SDS011;55778;54.346;10.210;2022-12-31T14:40:24;3.75;;;1.10;;
68792;SDS011;55778;54.346;10.210;2022-12-31T14:43:04;3.75;;;1.30;;
68792;SDS011;55778;54.346;10.210;2022-12-31T14:51:05;2.88;;;1.35;;
68792;SDS011;55778;54.346;10.210;2022-12-31T14:53:30;4.72;;;1.23;;
68792;SDS011;55778;54.346;10.210;2022-12-31T14:56:02;1.67;;;1.05;;
68792;SDS011;55778;54.346;10.210;2022-12-31T14:58:54;4.47;;;1.73;;
68792;SDS011;55778;54.346;10.210;2022-12-31T15:01:21;4.95;;;1.10;;
68792;SDS011;55778;54.346;10.210;2022-12-31T15:03:50;4.45;;;1.20;;
68792;SDS011;55778;54.346;10.210;2022-12-31T15:25:45;3.42;;;1.40;;
68792;SDS011;55778;54.346;10.210;2022-12-31T15:28:04;3.15;;;1.30;;
68792;SDS011;55778;54.346;10.210;2022-12-31T15:33:19;3.47;;;1.60;;
68792;SDS011;55778;54.346;10.210;2022-12-31T15:35:53;5.03;;;1.27;;
68792;SDS011;55778;54.346;10.210;2022-12-31T15:38:31;6.07;;;1.40;;
68792;SDS011;55778;54.346;10.210;2022-12-31T15:40:59;3.55;;;1.20;;
68792;SDS011;55778;54.346;10.210;2022-12-31T15:43:38;2.47;;;0.98;;
68792;SDS011;55778;54.346;10.210;2022-12-31T15:46:16;3.50;;;0.90;;
68792;SDS011;55778;54.346;10.210;2022-12-31T15:48:45;3.78;;;1.50;;
68792;SDS011;55778;54.346;10.210;2022-12-31T15:51:15;5.38;;;1.60;;
68792;SDS011;55778;54.346;10.210;2022-12-31T15:53:45;3.53;;;1.38;;
68792;SDS011;55778;54.346;10.210;2022-12-31T15:56:32;5.75;;;1.90;;
68792;SDS011;55778;54.346;10.210;2022-12-31T15:59:04;4.68;;;1.30;;
68792;SDS011;55778;54.346;10.210;2022-12-31T16:01:35;4.32;;;1.70;;
68792;SDS011;55778;54.346;10.210;2022-12-31T16:04:40;6.07;;;1.50;;
68792;SDS011;55778;54.346;10.210;2022-12-31T16:07:03;5.95;;;2.60;;
68792;SDS011;55778;54.346;10.210;2022-12-31T16:09:29;4.00;;;1.80;;
68792;SDS011;55778;54.346;10.210;2022-12-31T16:11:58;5.78;;;1.95;;
68792;SDS011;55778;54.346;10.210;2022-12-31T16:14:28;6.20;;;2.40;;
68792;SDS011;55778;54.346;10.210;2022-12-31T16:16:59;5.10;;;1.67;;
68792;SDS011;55778;54.346;10.210;2022-12-31T16:22:11;5.55;;;1.90;;
68792;SDS011;55778;54.346;10.210;2022-12-31T16:24:39;4.72;;;2.17;;
68792;SDS011;55778;54.346;10.210;2022-12-31T16:27:06;6.57;;;1.70;;
68792;SDS011;55778;54.346;10.210;2022-12-31T16:29:40;8.43;;;2.00;;
68792;SDS011;55778;54.346;10.210;2022-12-31T16:32:13;6.70;;;1.83;;
68792;SDS011;55778;54.346;10.210;2022-12-31T16:34:41;6.85;;;2.08;;
68792;SDS011;55778;54.346;10.210;2022-12-31T16:37:14;4.07;;;1.42;;
68792;SDS011;55778;54.346;10.210;2022-12-31T16:40:04;8.60;;;1.90;;
68792;SDS011;55778;54.346;10.210;2022-12-31T16:42:32;6.80;;;1.77;;
68792;SDS011;55778;54.346;10.210;2022-12-31T16:47:40;7.68;;;1.90;;
68792;SDS011;55778;54.346;10.210;2022-12-31T16:50:14;5.97;;;2.60;;
68792;SDS011;55778;54.346;10.210;2022-12-31T16:52:44;9.98;;;1.90;;
68792;SDS011;55778;54.346;10.210;2022-12-31T16:55:15;14.48;;;10.50;;
68792;SDS011;55778;54.346;10.210;2022-12-31T16:57:48;8.63;;;2.00;;
68792;SDS011;55778;54.346;10.210;2022-12-31T17:00:20;10.82;;;2.80;;
68792;SDS011;55778;54.346;10.210;2022-12-31T17:03:09;6.88;;;2.00;;
68792;SDS011;55778;54.346;10.210;2022-12-31T17:14:21;9.63;;;3.20;;
68792;SDS011;55778;54.346;10.210;2022-12-31T17:19:36;8.27;;;3.15;;
68792;SDS011;55778;54.346;10.210;2022-12-31T17:22:17;8.43;;;3.22;;
68792;SDS011;55778;54.346;10.210;2022-12-31T17:24:47;9.90;;;3.10;;
68792;SDS011;55778;54.346;10.210;2022-12-31T17:27:13;10.07;;;3.60;;
68792;SDS011;55778;54.346;10.210;2022-12-31T17:29:39;9.88;;;2.90;;
68792;SDS011;55778;54.346;10.210;2022-12-31T17:34:52;11.95;;;3.80;;
68792;SDS011;55778;54.346;10.210;2022-12-31T17:37:19;11.85;;;4.72;;
68792;SDS011;55778;54.346;10.210;2022-12-31T17:39:50;15.60;;;4.93;;
68792;SDS011;55778;54.346;10.210;2022-12-31T17:42:46;12.55;;;5.38;;
68792;SDS011;55778;54.346;10.210;2022-12-31T17:45:14;12.20;;;4.43;;
68792;SDS011;55778;54.346;10.210;2022-12-31T17:47:44;11.13;;;4.35;;
68792;SDS011;55778;54.346;10.210;2022-12-31T17:50:16;12.60;;;3.65;;
68792;SDS011;55778;54.346;10.210;2022-12-31T17:52:46;13.68;;;4.57;;
68792;SDS011;55778;54.346;10.210;2022-12-31T17:55:12;12.20;;;5.03;;
68792;SDS011;55778;54.346;10.210;2022-12-31T17:57:42;16.58;;;6.30;;
68792;SDS011;55778;54.346;10.210;2022-12-31T18:00:20;12.38;;;4.90;;
68792;SDS011;55778;54.346;10.210;2022-12-31T18:02:47;13.70;;;4.80;;
68792;SDS011;55778;54.346;10.210;2022-12-31T18:05:17;16.13;;;5.68;;
68792;SDS011;55778;54.346;10.210;2022-12-31T18:07:44;14.82;;;6.43;;
68792;SDS011;55778;54.346;10.210;2022-12-31T18:10:11;14.10;;;6.57;;
68792;SDS011;55778;54.346;10.210;2022-12-31T18:12:38;10.40;;;5.35;;
68792;SDS011;55778;54.346;10.210;2022-12-31T18:15:04;40.53;;;23.70;;
68792;SDS011;55778;54.346;10.210;2022-12-31T18:17:30;17.70;;;7.70;;
68792;SDS011;55778;54.346;10.210;2022-12-31T18:19:57;31.27;;;16.08;;
68792;SDS011;55778;54.346;10.210;2022-12-31T18:22:22;19.95;;;9.45;;
68792;SDS011;55778;54.346;10.210;2022-12-31T18:24:49;15.13;;;5.75;;
68792;SDS011;55778;54.346;10.210;2022-12-31T18:27:18;12.68;;;4.50;;
68792;SDS011;55778;54.346;10.210;2022-12-31T18:29:44;11.18;;;5.03;;
68792;SDS011;55778;54.346;10.210;2022-12-31T18:32:20;11.10;;;5.55;;
68792;SDS011;55778;54.346;10.210;2022-12-31T18:34:48;27.00;;;12.65;;
68792;SDS011;55778;54.346;10.210;2022-12-31T18:37:14;22.13;;;9.90;;
68792;SDS011;55778;54.346;10.210;2022-12-31T18:39:40;28.05;;;13.48;;
68792;SDS011;55778;54.346;10.210;2022-12-31T18:42:05;24.83;;;9.93;;
68792;SDS011;55778;54.346;10.210;2022-12-31T18:44:31;21.38;;;10.68;;
68792;SDS011;55778;54.346;10.210;2022-12-31T18:46:57;19.48;;;8.55;;
68792;SDS011;55778;54.346;10.210;2022-12-31T18:49:22;20.83;;;9.30;;
68792;SDS011;55778;54.346;10.210;2022-12-31T18:51:48;24.63;;;11.85;;
68792;SDS011;55778;54.346;10.210;2022-12-31T18:54:18;24.77;;;10.10;;
68792;SDS011;55778;54.346;10.210;2022-12-31T18:56:44;27.35;;;11.85;;
68792;SDS011;55778;54.346;10.210;2022-12-31T18:59:09;40.78;;;21.80;;
68792;SDS011;55778;54.346;10.210;2022-12-31T19:01:37;26.20;;;12.35;;
68792;SDS011;55778;54.346;10.210;2022-12-31T19:04:11;30.40;;;15.20;;
68792;SDS011;55778;54.346;10.210;2022-12-31T19:06:39;32.17;;;13.70;;
68792;SDS011;55778;54.346;10.210;2022-12-31T19:09:05;28.67;;;14.32;;
68792;SDS011;55778;54.346;10.210;2022-12-31T19:11:31;55.38;;;26.77;;
68792;SDS011;55778;54.346;10.210;2022-12-31T19:14:00;22.08;;;11.05;;
68792;SDS011;55778;54.346;10.210;2022-12-31T19:16:26;27.85;;;14.88;;
68792;SDS011;55778;54.346;10.210;2022-12-31T19:18:52;28.10;;;13.73;;
68792;SDS011;55778;54.346;10.210;2022-12-31T19:21:19;28.90;;;11.48;;
68792;SDS011;55778;54.346;10.210;2022-12-31T19:23:50;25.90;;;12.13;;
68792;SDS011;55778;54.346;10.210;2022-12-31T19:26:19;20.20;;;9.05;;
68792;SDS011;55778;54.346;10.210;2022-12-31T19:28:46;19.23;;;7.15;;